sensor_id;sensor_type;location;lat;lon;timestamp;P1;durP1;ratioP1;P2;durP2;ratioP2
41275;SDS011;27010;47.718;12.912;2023-06-19T00:00:46;7.90;;;7.00;;
41275;SDS011;27010;47.718;12.912;2023-06-19T00:03:48;8.57;;;6.53;;
41275;SDS011;27010;47.718;12.912;2023-06-19T00:06:50;10.27;;;6.83;;
41275;SDS011;27010;47.718;12.912;2023-06-19T00:09:53;10.33;;;7.07;;
41275;SDS011;27010;47.718;12.912;2023-06-19T00:12:54;9.50;;;5.87;;
41275;SDS011;27010;47.718;12.912;2023-06-19T00:15:57;10.03;;;6.77;;
41275;SDS011;27010;47.718;12.912;2023-06-19T00:19:02;9.17;;;6.80;;
41275;SDS011;27010;47.718;12.912;2023-06-19T00:22:05;7.50;;;6.40;;
41275;SDS011;27010;47.718;12.912;2023-06-19T00:25:07;7.87;;;6.27;;
41275;SDS011;27010;47.718;12.912;2023-06-19T00:28:09;9.13;;;6.73;;
41275;SDS011;27010;47.718;12.912;2023-06-19T00:31:14;8.33;;;6.53;;
41275;SDS011;27010;47.718;12.912;2023-06-19T00:34:18;9.77;;;6.50;;
41275;SDS011;27010;47.718;12.912;2023-06-19T00:37:20;9.60;;;6.80;;
41275;SDS011;27010;47.718;12.912;2023-06-19T00:40:32;9.07;;;6.63;;
41275;SDS011;27010;47.718;12.912;2023-06-19T00:43:35;9.93;;;6.87;;
41275;SDS011;27010;47.718;12.912;2023-06-19T00:46:37;8.77;;;6.90;;
41275;SDS011;27010;47.718;12.912;2023-06-19T00:49:41;8.37;;;6.63;;
41275;SDS011;27010;47.718;12.912;2023-06-19T00:52:43;7.87;;;6.17;;
41275;SDS011;27010;47.718;12.912;2023-06-19T00:55:46;8.87;;;6.90;;
41275;SDS011;27010;47.718;12.912;2023-06-19T00:58:49;7.53;;;6.27;;
41275;SDS011;27010;47.718;12.912;2023-06-19T01:01:53;7.97;;;6.63;;
41275;SDS011;27010;47.718;12.912;2023-06-19T01:04:56;7.50;;;6.20;;
41275;SDS011;27010;47.718;12.912;2023-06-19T01:07:59;7.23;;;6.13;;
41275;SDS011;27010;47.718;12.912;2023-06-19T01:11:05;9.80;;;6.50;;
41275;SDS011;27010;47.718;12.912;2023-06-19T01:14:28;8.43;;;6.70;;
41275;SDS011;27010;47.718;12.912;2023-06-19T01:17:38;7.00;;;6.20;;
41275;SDS011;27010;47.718;12.912;2023-06-19T01:20:40;8.10;;;7.00;;
41275;SDS011;27010;47.718;12.912;2023-06-19T01:23:45;7.63;;;6.67;;
41275;SDS011;27010;47.718;12.912;2023-06-19T01:26:47;8.23;;;6.43;;
41275;SDS011;27010;47.718;12.912;2023-06-19T01:29:49;8.27;;;6.53;;
41275;SDS011;27010;47.718;12.912;2023-06-19T01:36:32;7.37;;;6.60;;
41275;SDS011;27010;47.718;12.912;2023-06-19T01:39:34;7.77;;;6.60;;
41275;SDS011;27010;47.718;12.912;2023-06-19T01:42:37;8.17;;;6.77;;
41275;SDS011;27010;47.718;12.912;2023-06-19T01:45:43;8.40;;;6.93;;
41275;SDS011;27010;47.718;12.912;2023-06-19T01:48:45;9.10;;;6.53;;
41275;SDS011;27010;47.718;12.912;2023-06-19T01:51:47;8.50;;;6.77;;
41275;SDS011;27010;47.718;12.912;2023-06-19T01:54:49;9.83;;;6.50;;
41275;SDS011;27010;47.718;12.912;2023-06-19T01:57:51;6.93;;;6.20;;
41275;SDS011;27010;47.718;12.912;2023-06-19T02:00:53;8.60;;;6.47;;
41275;SDS011;27010;47.718;12.912;2023-06-19T02:03:56;9.37;;;7.67;;
41275;SDS011;27010;47.718;12.912;2023-06-19T02:06:58;9.33;;;6.90;;
41275;SDS011;27010;47.718;12.912;2023-06-19T02:10:01;8.57;;;7.17;;
41275;SDS011;27010;47.718;12.912;2023-06-19T02:13:03;10.50;;;6.83;;
41275;SDS011;27010;47.718;12.912;2023-06-19T02:16:05;12.83;;;7.03;;
41275;SDS011;27010;47.718;12.912;2023-06-19T02:19:07;9.87;;;7.10;;
41275;SDS011;27010;47.718;12.912;2023-06-19T02:22:09;7.60;;;6.77;;
41275;SDS011;27010;47.718;12.912;2023-06-19T02:25:11;8.87;;;6.53;;
41275;SDS011;27010;47.718;12.912;2023-06-19T02:28:13;7.73;;;6.30;;
41275;SDS011;27010;47.718;12.912;2023-06-19T02:31:15;11.57;;;7.33;;
41275;SDS011;27010;47.718;12.912;2023-06-19T02:34:17;7.73;;;6.77;;
41275;SDS011;27010;47.718;12.912;2023-06-19T02:37:20;8.73;;;6.93;;
41275;SDS011;27010;47.718;12.912;2023-06-19T02:40:22;7.60;;;6.43;;
41275;SDS011;27010;47.718;12.912;2023-06-19T02:43:24;10.10;;;6.53;;
41275;SDS011;27010;47.718;12.912;2023-06-19T02:46:27;9.17;;;6.60;;
41275;SDS011;27010;47.718;12.912;2023-06-19T02:49:29;7.10;;;6.07;;
41275;SDS011;27010;47.718;12.912;2023-06-19T02:52:31;10.23;;;6.60;;
41275;SDS011;27010;47.718;12.912;2023-06-19T02:55:33;7.47;;;6.73;;
41275;SDS011;27010;47.718;12.912;2023-06-19T02:58:36;10.50;;;6.50;;
41275;SDS011;27010;47.718;12.912;2023-06-19T03:01:39;7.43;;;6.07;;
41275;SDS011;27010;47.718;12.912;2023-06-19T03:04:42;7.67;;;6.30;;
41275;SDS011;27010;47.718;12.912;2023-06-19T03:07:45;10.70;;;6.43;;
41275;SDS011;27010;47.718;12.912;2023-06-19T03:10:48;8.63;;;6.20;;
41275;SDS011;27010;47.718;12.912;2023-06-19T03:13:51;7.97;;;6.47;;
41275;SDS011;27010;47.718;12.912;2023-06-19T03:16:53;6.93;;;6.17;;
41275;SDS011;27010;47.718;12.912;2023-06-19T03:19:55;9.03;;;6.20;;
41275;SDS011;27010;47.718;12.912;2023-06-19T03:22:58;9.90;;;6.50;;
41275;SDS011;27010;47.718;12.912;2023-06-19T03:26:00;8.07;;;6.33;;
41275;SDS011;27010;47.718;12.912;2023-06-19T03:29:02;13.67;;;7.03;;
41275;SDS011;27010;47.718;12.912;2023-06-19T03:32:05;9.77;;;6.73;;
41275;SDS011;27010;47.718;12.912;2023-06-19T03:35:08;7.97;;;6.77;;
41275;SDS011;27010;47.718;12.912;2023-06-19T03:38:12;7.77;;;6.93;;
41275;SDS011;27010;47.718;12.912;2023-06-19T03:41:17;8.90;;;6.60;;
41275;SDS011;27010;47.718;12.912;2023-06-19T03:44:19;8.83;;;6.23;;
41275;SDS011;27010;47.718;12.912;2023-06-19T03:47:21;10.10;;;6.70;;
41275;SDS011;27010;47.718;12.912;2023-06-19T03:50:23;8.37;;;6.03;;
41275;SDS011;27010;47.718;12.912;2023-06-19T03:53:31;8.33;;;6.90;;
41275;SDS011;27010;47.718;12.912;2023-06-19T03:56:54;9.00;;;6.93;;
41275;SDS011;27010;47.718;12.912;2023-06-19T04:03:19;9.43;;;6.63;;
41275;SDS011;27010;47.718;12.912;2023-06-19T04:06:22;9.50;;;6.87;;
41275;SDS011;27010;47.718;12.912;2023-06-19T04:09:25;9.83;;;6.80;;
41275;SDS011;27010;47.718;12.912;2023-06-19T04:12:27;7.77;;;6.90;;
41275;SDS011;27010;47.718;12.912;2023-06-19T04:15:32;7.43;;;6.33;;
41275;SDS011;27010;47.718;12.912;2023-06-19T04:18:35;8.10;;;6.47;;
41275;SDS011;27010;47.718;12.912;2023-06-19T04:21:37;8.63;;;7.00;;
41275;SDS011;27010;47.718;12.912;2023-06-19T04:24:39;7.90;;;6.40;;
41275;SDS011;27010;47.718;12.912;2023-06-19T04:27:41;6.97;;;6.13;;
41275;SDS011;27010;47.718;12.912;2023-06-19T04:30:43;7.43;;;6.30;;
41275;SDS011;27010;47.718;12.912;2023-06-19T04:33:45;7.63;;;6.30;;
41275;SDS011;27010;47.718;12.912;2023-06-19T04:36:48;7.47;;;6.27;;
41275;SDS011;27010;47.718;12.912;2023-06-19T04:39:50;9.00;;;6.63;;
41275;SDS011;27010;47.718;12.912;2023-06-19T04:42:52;8.57;;;6.77;;
41275;SDS011;27010;47.718;12.912;2023-06-19T04:45:55;8.27;;;7.23;;
41275;SDS011;27010;47.718;12.912;2023-06-19T04:48:58;7.63;;;6.80;;
41275;SDS011;27010;47.718;12.912;2023-06-19T04:52:00;8.87;;;7.07;;
41275;SDS011;27010;47.718;12.912;2023-06-19T04:55:04;10.25;;;6.53;;
41275;SDS011;27010;47.718;12.912;2023-06-19T04:58:10;9.70;;;6.57;;
41275;SDS011;27010;47.718;12.912;2023-06-19T05:01:13;7.80;;;6.68;;
41275;SDS011;27010;47.718;12.912;2023-06-19T05:04:16;7.65;;;6.78;;
41275;SDS011;27010;47.718;12.912;2023-06-19T05:07:18;9.75;;;6.97;;
41275;SDS011;27010;47.718;12.912;2023-06-19T05:10:20;9.98;;;6.72;;
41275;SDS011;27010;47.718;12.912;2023-06-19T05:13:22;8.75;;;6.90;;
41275;SDS011;27010;47.718;12.912;2023-06-19T05:16:25;9.10;;;6.90;;
41275;SDS011;27010;47.718;12.912;2023-06-19T05:19:30;8.50;;;6.93;;
41275;SDS011;27010;47.718;12.912;2023-06-19T05:22:35;8.18;;;6.55;;
41275;SDS011;27010;47.718;12.912;2023-06-19T05:25:39;9.13;;;6.55;;
41275;SDS011;27010;47.718;12.912;2023-06-19T05:29:36;8.85;;;6.30;;
41275;SDS011;27010;47.718;12.912;2023-06-19T05:32:38;8.32;;;6.80;;
41275;SDS011;27010;47.718;12.912;2023-06-19T05:35:40;7.93;;;6.75;;
41275;SDS011;27010;47.718;12.912;2023-06-19T05:38:43;10.68;;;6.85;;
41275;SDS011;27010;47.718;12.912;2023-06-19T05:41:48;10.63;;;7.30;;
41275;SDS011;27010;47.718;12.912;2023-06-19T05:44:50;8.95;;;6.70;;
41275;SDS011;27010;47.718;12.912;2023-06-19T05:47:52;8.52;;;7.00;;
41275;SDS011;27010;47.718;12.912;2023-06-19T05:50:55;9.35;;;6.63;;
41275;SDS011;27010;47.718;12.912;2023-06-19T05:53:57;8.13;;;6.25;;
41275;SDS011;27010;47.718;12.912;2023-06-19T05:57:05;9.27;;;6.50;;
41275;SDS011;27010;47.718;12.912;2023-06-19T06:00:08;11.77;;;6.95;;
41275;SDS011;27010;47.718;12.912;2023-06-19T06:03:16;8.73;;;6.65;;
41275;SDS011;27010;47.718;12.912;2023-06-19T06:06:17;13.63;;;7.10;;
41275;SDS011;27010;47.718;12.912;2023-06-19T06:09:20;10.23;;;7.00;;
41275;SDS011;27010;47.718;12.912;2023-06-19T06:12:22;12.73;;;7.70;;
41275;SDS011;27010;47.718;12.912;2023-06-19T06:15:25;11.40;;;7.53;;
41275;SDS011;27010;47.718;12.912;2023-06-19T06:18:27;8.05;;;6.53;;
41275;SDS011;27010;47.718;12.912;2023-06-19T06:21:29;8.18;;;7.03;;
41275;SDS011;27010;47.718;12.912;2023-06-19T06:24:31;8.18;;;7.07;;
41275;SDS011;27010;47.718;12.912;2023-06-19T06:27:34;8.95;;;7.25;;
41275;SDS011;27010;47.718;12.912;2023-06-19T06:30:36;9.20;;;7.55;;
41275;SDS011;27010;47.718;12.912;2023-06-19T06:33:38;7.70;;;6.90;;
41275;SDS011;27010;47.718;12.912;2023-06-19T06:36:40;10.82;;;7.75;;
41275;SDS011;27010;47.718;12.912;2023-06-19T06:40:01;8.70;;;6.72;;
41275;SDS011;27010;47.718;12.912;2023-06-19T06:43:06;8.23;;;7.38;;
41275;SDS011;27010;47.718;12.912;2023-06-19T06:46:09;10.40;;;7.40;;
41275;SDS011;27010;47.718;12.912;2023-06-19T06:49:16;9.23;;;7.30;;
41275;SDS011;27010;47.718;12.912;2023-06-19T06:52:18;12.43;;;7.57;;
41275;SDS011;27010;47.718;12.912;2023-06-19T06:55:20;8.20;;;6.82;;
41275;SDS011;27010;47.718;12.912;2023-06-19T06:58:22;9.98;;;7.00;;
41275;SDS011;27010;47.718;12.912;2023-06-19T07:01:24;10.45;;;7.47;;
41275;SDS011;27010;47.718;12.912;2023-06-19T07:04:26;8.75;;;7.50;;
41275;SDS011;27010;47.718;12.912;2023-06-19T07:07:29;9.85;;;7.05;;
41275;SDS011;27010;47.718;12.912;2023-06-19T07:10:31;9.90;;;7.10;;
41275;SDS011;27010;47.718;12.912;2023-06-19T07:13:33;11.93;;;7.80;;
41275;SDS011;27010;47.718;12.912;2023-06-19T07:16:35;11.63;;;6.97;;
41275;SDS011;27010;47.718;12.912;2023-06-19T07:19:37;9.43;;;7.10;;
41275;SDS011;27010;47.718;12.912;2023-06-19T07:22:39;8.02;;;6.95;;
41275;SDS011;27010;47.718;12.912;2023-06-19T07:25:41;8.10;;;7.05;;
41275;SDS011;27010;47.718;12.912;2023-06-19T07:28:43;9.40;;;7.05;;
41275;SDS011;27010;47.718;12.912;2023-06-19T07:31:45;8.10;;;7.13;;
41275;SDS011;27010;47.718;12.912;2023-06-19T07:34:47;9.38;;;7.13;;
41275;SDS011;27010;47.718;12.912;2023-06-19T07:37:49;10.35;;;6.75;;
41275;SDS011;27010;47.718;12.912;2023-06-19T07:40:51;8.02;;;7.20;;
41275;SDS011;27010;47.718;12.912;2023-06-19T07:43:53;9.57;;;7.32;;
41275;SDS011;27010;47.718;12.912;2023-06-19T07:46:55;9.63;;;7.07;;
41275;SDS011;27010;47.718;12.912;2023-06-19T07:49:57;8.52;;;6.95;;
41275;SDS011;27010;47.718;12.912;2023-06-19T07:52:59;8.18;;;7.05;;
41275;SDS011;27010;47.718;12.912;2023-06-19T07:56:01;9.27;;;7.45;;
41275;SDS011;27010;47.718;12.912;2023-06-19T07:59:03;8.63;;;7.22;;
41275;SDS011;27010;47.718;12.912;2023-06-19T08:02:06;8.52;;;6.97;;
41275;SDS011;27010;47.718;12.912;2023-06-19T08:05:09;9.98;;;7.22;;
41275;SDS011;27010;47.718;12.912;2023-06-19T08:08:12;8.20;;;7.20;;
41275;SDS011;27010;47.718;12.912;2023-06-19T08:11:14;8.13;;;6.90;;
41275;SDS011;27010;47.718;12.912;2023-06-19T08:14:16;7.93;;;6.75;;
41275;SDS011;27010;47.718;12.912;2023-06-19T08:17:19;7.75;;;6.93;;
41275;SDS011;27010;47.718;12.912;2023-06-19T08:20:21;8.15;;;7.25;;
41275;SDS011;27010;47.718;12.912;2023-06-19T08:23:23;9.93;;;6.80;;
41275;SDS011;27010;47.718;12.912;2023-06-19T08:26:25;10.70;;;7.40;;
41275;SDS011;27010;47.718;12.912;2023-06-19T08:29:31;9.77;;;6.82;;
41275;SDS011;27010;47.718;12.912;2023-06-19T08:32:33;11.45;;;7.30;;
41275;SDS011;27010;47.718;12.912;2023-06-19T08:35:36;10.85;;;6.68;;
41275;SDS011;27010;47.718;12.912;2023-06-19T08:38:38;8.13;;;7.32;;
41275;SDS011;27010;47.718;12.912;2023-06-19T08:41:40;8.63;;;7.05;;
41275;SDS011;27010;47.718;12.912;2023-06-19T08:44:43;8.20;;;7.00;;
41275;SDS011;27010;47.718;12.912;2023-06-19T08:47:46;8.50;;;6.82;;
41275;SDS011;27010;47.718;12.912;2023-06-19T08:50:51;7.03;;;6.32;;
41275;SDS011;27010;47.718;12.912;2023-06-19T08:53:55;7.80;;;7.00;;
41275;SDS011;27010;47.718;12.912;2023-06-19T08:57:01;6.68;;;5.93;;
41275;SDS011;27010;47.718;12.912;2023-06-19T09:00:04;7.03;;;6.32;;
41275;SDS011;27010;47.718;12.912;2023-06-19T09:03:09;8.00;;;6.72;;
41275;SDS011;27010;47.718;12.912;2023-06-19T09:06:15;7.57;;;6.70;;
41275;SDS011;27010;47.718;12.912;2023-06-19T09:09:21;7.68;;;6.57;;
41275;SDS011;27010;47.718;12.912;2023-06-19T09:12:24;7.10;;;6.22;;
41275;SDS011;27010;47.718;12.912;2023-06-19T09:15:28;7.43;;;6.72;;
41275;SDS011;27010;47.718;12.912;2023-06-19T09:18:47;8.38;;;6.70;;
41275;SDS011;27010;47.718;12.912;2023-06-19T09:21:49;8.30;;;6.40;;
41275;SDS011;27010;47.718;12.912;2023-06-19T09:24:51;9.00;;;6.65;;
41275;SDS011;27010;47.718;12.912;2023-06-19T09:27:54;7.60;;;6.82;;
41275;SDS011;27010;47.718;12.912;2023-06-19T09:31:00;7.95;;;7.15;;
41275;SDS011;27010;47.718;12.912;2023-06-19T09:34:04;7.35;;;6.65;;
41275;SDS011;27010;47.718;12.912;2023-06-19T09:37:07;7.80;;;6.50;;
41275;SDS011;27010;47.718;12.912;2023-06-19T09:40:12;10.27;;;6.32;;
41275;SDS011;27010;47.718;12.912;2023-06-19T09:43:18;10.18;;;7.20;;
41275;SDS011;27010;47.718;12.912;2023-06-19T09:46:25;7.13;;;6.43;;
41275;SDS011;27010;47.718;12.912;2023-06-19T09:49:28;7.47;;;6.47;;
41275;SDS011;27010;47.718;12.912;2023-06-19T09:52:34;7.28;;;6.57;;
41275;SDS011;27010;47.718;12.912;2023-06-19T09:55:37;7.03;;;6.40;;
41275;SDS011;27010;47.718;12.912;2023-06-19T09:58:39;12.57;;;6.93;;
41275;SDS011;27010;47.718;12.912;2023-06-19T10:01:43;7.18;;;6.47;;
41275;SDS011;27010;47.718;12.912;2023-06-19T10:04:53;7.55;;;6.32;;
41275;SDS011;27010;47.718;12.912;2023-06-19T10:07:57;8.70;;;5.97;;
41275;SDS011;27010;47.718;12.912;2023-06-19T10:11:03;8.80;;;6.05;;
41275;SDS011;27010;47.718;12.912;2023-06-19T10:14:05;8.15;;;6.82;;
41275;SDS011;27010;47.718;12.912;2023-06-19T10:17:09;7.50;;;6.53;;
41275;SDS011;27010;47.718;12.912;2023-06-19T10:20:25;9.52;;;6.53;;
41275;SDS011;27010;47.718;12.912;2023-06-19T10:23:36;6.55;;;5.95;;
41275;SDS011;27010;47.718;12.912;2023-06-19T10:26:38;7.63;;;5.85;;
41275;SDS011;27010;47.718;12.912;2023-06-19T10:29:41;7.25;;;6.07;;
41275;SDS011;27010;47.718;12.912;2023-06-19T10:33:01;6.78;;;5.90;;
41275;SDS011;27010;47.718;12.912;2023-06-19T10:36:15;8.65;;;6.85;;
41275;SDS011;27010;47.718;12.912;2023-06-19T10:39:18;7.35;;;6.68;;
41275;SDS011;27010;47.718;12.912;2023-06-19T10:42:20;7.88;;;6.53;;
41275;SDS011;27010;47.718;12.912;2023-06-19T10:45:22;6.85;;;6.05;;
41275;SDS011;27010;47.718;12.912;2023-06-19T10:48:30;7.90;;;6.13;;
41275;SDS011;27010;47.718;12.912;2023-06-19T10:51:35;10.02;;;7.47;;
41275;SDS011;27010;47.718;12.912;2023-06-19T10:54:38;8.15;;;7.03;;
41275;SDS011;27010;47.718;12.912;2023-06-19T10:57:40;7.47;;;6.72;;
41275;SDS011;27010;47.718;12.912;2023-06-19T11:00:46;9.55;;;7.18;;
41275;SDS011;27010;47.718;12.912;2023-06-19T11:03:49;10.27;;;6.10;;
41275;SDS011;27010;47.718;12.912;2023-06-19T11:06:52;8.32;;;6.82;;
41275;SDS011;27010;47.718;12.912;2023-06-19T11:09:55;7.40;;;6.40;;
41275;SDS011;27010;47.718;12.912;2023-06-19T11:12:58;6.88;;;6.18;;
41275;SDS011;27010;47.718;12.912;2023-06-19T11:16:00;7.80;;;7.10;;
41275;SDS011;27010;47.718;12.912;2023-06-19T11:19:03;7.45;;;5.88;;
41275;SDS011;27010;47.718;12.912;2023-06-19T11:22:05;7.10;;;5.57;;
41275;SDS011;27010;47.718;12.912;2023-06-19T11:25:09;9.80;;;6.30;;
41275;SDS011;27010;47.718;12.912;2023-06-19T11:28:12;6.05;;;5.55;;
41275;SDS011;27010;47.718;12.912;2023-06-19T11:31:15;7.47;;;5.95;;
41275;SDS011;27010;47.718;12.912;2023-06-19T11:34:17;6.32;;;5.57;;
41275;SDS011;27010;47.718;12.912;2023-06-19T11:37:24;7.15;;;5.88;;
41275;SDS011;27010;47.718;12.912;2023-06-19T11:40:26;8.77;;;6.45;;
41275;SDS011;27010;47.718;12.912;2023-06-19T11:43:30;6.38;;;5.78;;
41275;SDS011;27010;47.718;12.912;2023-06-19T11:46:33;7.90;;;7.03;;
41275;SDS011;27010;47.718;12.912;2023-06-19T11:49:35;7.10;;;6.43;;
41275;SDS011;27010;47.718;12.912;2023-06-19T11:52:38;7.40;;;6.28;;
41275;SDS011;27010;47.718;12.912;2023-06-19T11:55:41;8.68;;;7.07;;
41275;SDS011;27010;47.718;12.912;2023-06-19T11:58:45;6.75;;;5.65;;
41275;SDS011;27010;47.718;12.912;2023-06-19T12:01:47;6.53;;;5.88;;
41275;SDS011;27010;47.718;12.912;2023-06-19T12:04:49;6.47;;;5.80;;
41275;SDS011;27010;47.718;12.912;2023-06-19T12:07:52;8.18;;;5.95;;
41275;SDS011;27010;47.718;12.912;2023-06-19T12:10:55;7.88;;;6.25;;
41275;SDS011;27010;47.718;12.912;2023-06-19T12:13:57;7.97;;;5.95;;
41275;SDS011;27010;47.718;12.912;2023-06-19T12:16:59;6.20;;;5.60;;
41275;SDS011;27010;47.718;12.912;2023-06-19T12:20:02;5.57;;;5.07;;
41275;SDS011;27010;47.718;12.912;2023-06-19T12:23:07;7.25;;;5.68;;
41275;SDS011;27010;47.718;12.912;2023-06-19T12:26:09;5.90;;;5.40;;
41275;SDS011;27010;47.718;12.912;2023-06-19T12:29:11;8.07;;;6.07;;
41275;SDS011;27010;47.718;12.912;2023-06-19T12:32:13;6.47;;;5.88;;
41275;SDS011;27010;47.718;12.912;2023-06-19T12:35:15;5.97;;;5.47;;
41275;SDS011;27010;47.718;12.912;2023-06-19T12:38:17;12.20;;;6.00;;
41275;SDS011;27010;47.718;12.912;2023-06-19T12:41:20;6.03;;;5.43;;
41275;SDS011;27010;47.718;12.912;2023-06-19T12:44:23;6.47;;;5.78;;
41275;SDS011;27010;47.718;12.912;2023-06-19T12:47:26;8.18;;;5.93;;
41275;SDS011;27010;47.718;12.912;2023-06-19T12:50:28;7.20;;;5.72;;
41275;SDS011;27010;47.718;12.912;2023-06-19T12:53:30;7.28;;;5.97;;
41275;SDS011;27010;47.718;12.912;2023-06-19T12:56:32;6.03;;;5.43;;
41275;SDS011;27010;47.718;12.912;2023-06-19T12:59:34;8.52;;;5.95;;
41275;SDS011;27010;47.718;12.912;2023-06-19T13:02:36;6.72;;;5.82;;
41275;SDS011;27010;47.718;12.912;2023-06-19T13:05:39;6.93;;;5.75;;
41275;SDS011;27010;47.718;12.912;2023-06-19T13:08:41;7.55;;;6.65;;
41275;SDS011;27010;47.718;12.912;2023-06-19T13:11:43;6.55;;;5.95;;
41275;SDS011;27010;47.718;12.912;2023-06-19T13:14:45;8.70;;;6.20;;
41275;SDS011;27010;47.718;12.912;2023-06-19T13:17:47;6.80;;;6.20;;
41275;SDS011;27010;47.718;12.912;2023-06-19T13:20:49;8.40;;;6.22;;
41275;SDS011;27010;47.718;12.912;2023-06-19T13:23:52;7.05;;;6.35;;
41275;SDS011;27010;47.718;12.912;2023-06-19T13:26:55;6.72;;;5.75;;
41275;SDS011;27010;47.718;12.912;2023-06-19T13:29:59;7.15;;;6.45;;
41275;SDS011;27010;47.718;12.912;2023-06-19T13:33:02;6.88;;;5.47;;
41275;SDS011;27010;47.718;12.912;2023-06-19T13:36:06;8.43;;;6.43;;
41275;SDS011;27010;47.718;12.912;2023-06-19T13:39:08;6.38;;;5.78;;
41275;SDS011;27010;47.718;12.912;2023-06-19T13:42:10;6.82;;;6.20;;
41275;SDS011;27010;47.718;12.912;2023-06-19T13:45:12;9.15;;;6.97;;
41275;SDS011;27010;47.718;12.912;2023-06-19T13:48:14;8.27;;;5.57;;
41275;SDS011;27010;47.718;12.912;2023-06-19T13:51:18;6.05;;;5.55;;
41275;SDS011;27010;47.718;12.912;2023-06-19T13:54:20;8.43;;;6.00;;
41275;SDS011;27010;47.718;12.912;2023-06-19T13:57:23;9.18;;;6.90;;
41275;SDS011;27010;47.718;12.912;2023-06-19T14:00:25;6.78;;;6.10;;
41275;SDS011;27010;47.718;12.912;2023-06-19T14:03:27;7.88;;;6.78;;
41275;SDS011;27010;47.718;12.912;2023-06-19T14:06:29;8.68;;;6.65;;
41275;SDS011;27010;47.718;12.912;2023-06-19T14:09:31;7.32;;;6.63;;
41275;SDS011;27010;47.718;12.912;2023-06-19T14:12:34;8.20;;;6.80;;
41275;SDS011;27010;47.718;12.912;2023-06-19T14:15:36;6.90;;;6.28;;
41275;SDS011;27010;47.718;12.912;2023-06-19T14:18:38;7.72;;;6.53;;
41275;SDS011;27010;47.718;12.912;2023-06-19T14:21:40;7.10;;;6.35;;
41275;SDS011;27010;47.718;12.912;2023-06-19T14:24:43;7.68;;;6.97;;
41275;SDS011;27010;47.718;12.912;2023-06-19T14:27:45;6.82;;;6.13;;
41275;SDS011;27010;47.718;12.912;2023-06-19T14:30:48;7.22;;;6.35;;
41275;SDS011;27010;47.718;12.912;2023-06-19T14:33:50;7.20;;;6.60;;
41275;SDS011;27010;47.718;12.912;2023-06-19T14:36:52;7.43;;;6.47;;
41275;SDS011;27010;47.718;12.912;2023-06-19T14:39:55;7.53;;;6.22;;
41275;SDS011;27010;47.718;12.912;2023-06-19T14:42:57;7.72;;;6.80;;
41275;SDS011;27010;47.718;12.912;2023-06-19T14:45:59;6.90;;;6.30;;
41275;SDS011;27010;47.718;12.912;2023-06-19T14:49:01;7.90;;;6.57;;
41275;SDS011;27010;47.718;12.912;2023-06-19T14:52:03;6.90;;;6.30;;
41275;SDS011;27010;47.718;12.912;2023-06-19T14:55:06;8.27;;;6.70;;
41275;SDS011;27010;47.718;12.912;2023-06-19T14:58:09;9.07;;;6.55;;
41275;SDS011;27010;47.718;12.912;2023-06-19T15:01:11;7.55;;;6.75;;
41275;SDS011;27010;47.718;12.912;2023-06-19T15:04:13;7.00;;;6.30;;
41275;SDS011;27010;47.718;12.912;2023-06-19T15:07:16;6.88;;;6.28;;
41275;SDS011;27010;47.718;12.912;2023-06-19T15:10:18;6.75;;;6.07;;
41275;SDS011;27010;47.718;12.912;2023-06-19T15:13:20;7.47;;;6.45;;
41275;SDS011;27010;47.718;12.912;2023-06-19T15:16:22;7.07;;;6.38;;
41275;SDS011;27010;47.718;12.912;2023-06-19T15:19:26;7.20;;;6.50;;
41275;SDS011;27010;47.718;12.912;2023-06-19T15:22:28;7.18;;;6.50;;
41275;SDS011;27010;47.718;12.912;2023-06-19T15:25:30;7.93;;;5.55;;
41275;SDS011;27010;47.718;12.912;2023-06-19T15:28:33;6.00;;;5.47;;
41275;SDS011;27010;47.718;12.912;2023-06-19T15:31:35;10.75;;;5.93;;
41275;SDS011;27010;47.718;12.912;2023-06-19T15:34:37;7.95;;;6.07;;
41275;SDS011;27010;47.718;12.912;2023-06-19T15:37:40;7.63;;;6.32;;
41275;SDS011;27010;47.718;12.912;2023-06-19T15:40:42;6.43;;;5.82;;
41275;SDS011;27010;47.718;12.912;2023-06-19T15:43:45;7.95;;;6.43;;
41275;SDS011;27010;47.718;12.912;2023-06-19T15:46:47;7.40;;;6.43;;
41275;SDS011;27010;47.718;12.912;2023-06-19T15:49:48;6.53;;;5.93;;
41275;SDS011;27010;47.718;12.912;2023-06-19T15:52:50;6.95;;;6.10;;
41275;SDS011;27010;47.718;12.912;2023-06-19T15:55:52;8.77;;;6.07;;
41275;SDS011;27010;47.718;12.912;2023-06-19T15:58:54;10.30;;;6.40;;
41275;SDS011;27010;47.718;12.912;2023-06-19T16:01:57;8.38;;;6.40;;
41275;SDS011;27010;47.718;12.912;2023-06-19T16:05:00;9.32;;;6.22;;
41275;SDS011;27010;47.718;12.912;2023-06-19T16:08:01;6.65;;;6.07;;
41275;SDS011;27010;47.718;12.912;2023-06-19T16:11:04;7.38;;;6.30;;
41275;SDS011;27010;47.718;12.912;2023-06-19T16:14:09;6.78;;;6.18;;
41275;SDS011;27010;47.718;12.912;2023-06-19T16:17:12;8.57;;;6.22;;
41275;SDS011;27010;47.718;12.912;2023-06-19T16:20:14;7.95;;;6.10;;
41275;SDS011;27010;47.718;12.912;2023-06-19T16:23:16;6.78;;;6.15;;
41275;SDS011;27010;47.718;12.912;2023-06-19T16:26:18;7.47;;;6.80;;
41275;SDS011;27010;47.718;12.912;2023-06-19T16:29:20;6.63;;;6.03;;
41275;SDS011;27010;47.718;12.912;2023-06-19T16:32:22;7.13;;;6.53;;
41275;SDS011;27010;47.718;12.912;2023-06-19T16:35:25;7.40;;;6.78;;
41275;SDS011;27010;47.718;12.912;2023-06-19T16:38:27;7.15;;;6.45;;
41275;SDS011;27010;47.718;12.912;2023-06-19T16:41:29;7.20;;;6.60;;
41275;SDS011;27010;47.718;12.912;2023-06-19T16:44:31;7.72;;;6.30;;
41275;SDS011;27010;47.718;12.912;2023-06-19T16:47:33;7.80;;;6.30;;
41275;SDS011;27010;47.718;12.912;2023-06-19T16:50:35;7.20;;;6.57;;
41275;SDS011;27010;47.718;12.912;2023-06-19T16:53:37;7.78;;;6.93;;
41275;SDS011;27010;47.718;12.912;2023-06-19T16:56:40;8.13;;;6.30;;
41275;SDS011;27010;47.718;12.912;2023-06-19T16:59:42;9.25;;;6.55;;
41275;SDS011;27010;47.718;12.912;2023-06-19T17:02:44;7.13;;;6.53;;
41275;SDS011;27010;47.718;12.912;2023-06-19T17:05:46;6.68;;;6.07;;
41275;SDS011;27010;47.718;12.912;2023-06-19T17:08:49;7.63;;;6.85;;
41275;SDS011;27010;47.718;12.912;2023-06-19T17:11:52;7.75;;;7.05;;
41275;SDS011;27010;47.718;12.912;2023-06-19T17:14:54;8.57;;;7.38;;
41275;SDS011;27010;47.718;12.912;2023-06-19T17:17:58;7.80;;;7.00;;
41275;SDS011;27010;47.718;12.912;2023-06-19T17:21:01;7.32;;;6.63;;
41275;SDS011;27010;47.718;12.912;2023-06-19T17:24:03;7.93;;;7.13;;
41275;SDS011;27010;47.718;12.912;2023-06-19T17:27:10;10.70;;;7.88;;
41275;SDS011;27010;47.718;12.912;2023-06-19T17:30:13;7.72;;;6.93;;
41275;SDS011;27010;47.718;12.912;2023-06-19T17:33:38;7.53;;;6.82;;
41275;SDS011;27010;47.718;12.912;2023-06-19T17:36:41;18.00;;;12.73;;
41275;SDS011;27010;47.718;12.912;2023-06-19T17:39:44;28.10;;;22.83;;
41275;SDS011;27010;47.718;12.912;2023-06-19T17:42:46;26.50;;;19.48;;
41275;SDS011;27010;47.718;12.912;2023-06-19T17:45:48;16.45;;;14.02;;
41275;SDS011;27010;47.718;12.912;2023-06-19T17:48:50;18.25;;;12.18;;
41275;SDS011;27010;47.718;12.912;2023-06-19T17:51:52;10.95;;;9.07;;
41275;SDS011;27010;47.718;12.912;2023-06-19T17:54:54;11.82;;;7.65;;
41275;SDS011;27010;47.718;12.912;2023-06-19T17:57:57;10.07;;;8.55;;
41275;SDS011;27010;47.718;12.912;2023-06-19T18:00:59;10.32;;;7.97;;
41275;SDS011;27010;47.718;12.912;2023-06-19T18:04:01;10.57;;;7.65;;
41275;SDS011;27010;47.718;12.912;2023-06-19T18:07:04;13.35;;;7.82;;
41275;SDS011;27010;47.718;12.912;2023-06-19T18:10:06;7.82;;;6.90;;
41275;SDS011;27010;47.718;12.912;2023-06-19T18:13:09;8.38;;;6.63;;